Airfield :
LOGIN :

Register | Disclaimer

   EN    FR    IT 

 










Legend :    VFR   Marginal VFR   IFR   Intensive IFR   Very Intensive IFR
Visi :
Ceiling :
>= 8 km
>= 3000ft
5 to 8 km
1000 to 3000 ft
1500m to 5 km
500 to 1000 ft
800 to 1500m
200 to 500 ft
< 800m
< 200 ft
Symbols :   Thunderstorms  Fog  Heavy snow  Heavy precipitations  Wind > 20 kt
SIGMETs :     Misc.  Thunderstorms  Icing  Turbulence  Mountain Waves  Volcanic Ashes







- Airport Elevation : 348 ft
- IATA code : STN
- Download approach charts


EGSS - London Stansted

CURRENT METAR :
  • 181050Z AUTO 27005KT 240V300 9999 BKN012 BKN021 19/16 Q1009

EXPIRED METARs :
  • 181020Z AUTO 24006KT 210V280 9999 SCT008/// BKN012/// BKN017/// //////TCU 19/17 Q1009
  • 180950Z AUTO 24007KT 9999 BKN005 BKN012 17/17 Q1009
  • 180920Z AUTO 24006KT 6000 -RA SCT004 BKN007 BKN022 17/16 Q1009
  • 180850Z AUTO 23007KT 9999 -RA BKN003 BKN010 BKN022 16/16 Q1009 REDZ
  • 180820Z AUTO 23008KT 1900 DZ BKN003 OVC008 16/16 Q1009

TAF AMD TAF EGSS
Valid from the 18 at 09:00 until the 19 at 12:00 UTC


180901Z 1809/1912 20007KT 9999 BKN012
TEMPO 1809/1811 3500 DZ BKN004
BECMG 1811/1814 27010KT SCT020
TEMPO 1811/1814 6000 SHRA
PROB30
TEMPO 1811/1814 4000 +SHRA
BECMG 1906/1909 20010KT
TEMPO 1910/1912 6000 RA SHRA BKN009
ATIS : +44 1279 669 325
No reported NOTAMs for that airfield.



MET'MAP, your aeronautical weather chart ! - Copyright ORBIFLY December 2007 - Disclaimer

ORBIFLY MET'MAP TEAM :

Programming & Development : Alexandra Zaïnal
Concept & Development : Baudouin d'Aumeries
Co-Development & Prog : Marc-Olivier Méhu
Technical & hardware support : Manuel Goepfert

Contact : metmap@orbifly.com




SOURCES & CREDITS :

   NOAA